Tuesday, June 19, 2018, 12:49 AM EDT
Back to Local

KPHL, Philadelphia International Airpt

Location: Philadelphia, PA, United States Lat: 39.867
Local Time: 12:49 AM EDT ( 4:49 GMT) Lon: -75.233
Time Zone: US/Eastern Elev: 19 ft

Show me the last for .
Show Decoded

2018-06-18 23:54 METAR KPHL 190354Z 22010KT 10SM FEW280 28/22 A2983 RMK AO2 SLP101 T02780217 $ =
2018-06-18 22:54 METAR KPHL 190254Z 20007KT 10SM FEW180 SCT220 BKN280 28/22 A2985 RMK AO2 SLP109
                 T02830222 50007 $ =
2018-06-18 21:54 METAR KPHL 190154Z 26010KT 10SM SCT060 SCT100 BKN150 BKN250 29/22 A2987 RMK AO2
                 LTG DSNT E SLP114 OCNL LTGIC DSNT E CB DSNT E MOV SE T02940222 $ =
2018-06-18 20:54 METAR KPHL 190054Z 22009KT 10SM SCT050 BKN220 29/22 A2985 RMK AO2 LTG DSNT N AND
                 NW SLP106 OCNL LTGICCG DSNT NW-DSNT N CB DSNT NW-DSNT N MOV SE T02940217 $ =
2018-06-18 19:54 METAR KPHL 182354Z 19009KT 10SM BKN250 29/21 A2983 RMK AO2 SLP102 T02940211
                 10339 20294 56018 $ =
2018-06-18 18:54 METAR KPHL 182254Z 20012KT 10SM BKN250 31/21 A2983 RMK AO2 SLP102 T03060211 $ =
2018-06-18 17:54 METAR KPHL 182154Z 21013KT 10SM BKN250 32/21 A2986 RMK AO2 SLP111 T03220211 $ =
2018-06-18 16:54 METAR KPHL 182054Z 23015G20KT 10SM BKN300 33/21 A2989 RMK AO2 SLP120 T03280206
                 56025 $ =
2018-06-18 15:54 METAR KPHL 181954Z 21014G18KT 10SM FEW055 BKN300 33/20 A2991 RMK AO2 SLP128
                 T03330200 $ =
2018-06-18 14:54 METAR KPHL 181854Z 23014KT 10SM FEW055 BKN300 33/20 A2994 RMK AO2 SLP137
                 T03330200 $ =
2018-06-18 13:54 METAR KPHL 181754Z 23011KT 10SM FEW048 BKN300 32/19 A2996 RMK AO2 SLP145
                 T03220194 10328 20228 58018 $ =
2018-06-18 12:54 METAR KPHL 181654Z 24011KT 10SM FEW046 BKN300 32/20 A2998 RMK AO2 SLP153
                 T03220200 =
2018-06-18 11:54 METAR KPHL 181554Z 23011KT 10SM FEW040 SCT300 31/21 A3000 RMK AO2 SLP159
                 T03060206 =
2018-06-18 10:54 METAR KPHL 181454Z 22009KT 10SM BKN300 29/21 A3002 RMK AO2 SLP163 T02890206
                 58013 =
2018-06-18 09:54 METAR KPHL 181354Z 22008KT 10SM BKN300 27/21 A3003 RMK AO2 SLP167 T02720211 =
2018-06-18 08:54 METAR KPHL 181254Z 22005KT 10SM FEW220 BKN300 25/21 A3004 RMK AO2 SLP172
                 T02500206 =
2018-06-18 07:54 METAR KPHL 181154Z 18003KT 7SM FEW220 BKN300 23/20 A3005 RMK AO2 SLP176
                 T02280200 10228 20206 58003 =
2018-06-18 06:54 METAR KPHL 181054Z 22004KT 7SM FEW220 BKN300 22/20 A3007 RMK AO2 SLP181
                 T02170200 =
2018-06-18 05:54 METAR KPHL 180954Z 20003KT 7SM FEW200 BKN240 OVC280 21/20 A3007 RMK AO2 SLP183
                 T02110200 =
2018-06-18 04:54 METAR KPHL 180854Z 20004KT 7SM FEW200 BKN280 21/20 A3006 RMK AO2 SLP180
                 T02110200 58003 =
2018-06-18 04:24 METAR KPHL 180824Z 20003KT 7SM FEW220 SCT280 21/20 A3007 RMK AO2 T02110200 =
2018-06-18 03:54 METAR KPHL 180754Z 18005KT 10SM FEW220 SCT280 21/19 A3007 RMK AO2 SLP181
                 T02110194 =
2018-06-18 02:54 METAR KPHL 180654Z 18003KT 10SM FEW220 BKN280 21/19 A3007 RMK AO2 SLP183
                 T02110194 =
2018-06-18 01:54 METAR KPHL 180554Z 19004KT 10SM BKN280 22/19 A3007 RMK AO2 SLP183 T02170194
                 10283 20217 50001 =
2018-06-18 00:54 METAR KPHL 180454Z 17005KT 10SM BKN280 22/19 A3008 RMK AO2 SLP185 T02170189
                 403220183 =

Support USWX by starting your Amazon purchase here.